Time;durP1;ratioP1;P1;durP2;ratioP2;P2;SDS_P1;SDS_P2;PMS_P1;PMS_P2;Temp;Humidity;BMP_temperature;BMP_pressure;BME280_temperature;BME280_humidity;BME280_pressure;Samples;Min_cycle;Max_cycle;Signal;HPM_P1;HPM_P2
2023/06/13 00:01:09;;;;;;;5.75;5.25;;;18.70;58.80;;;;;;6228906;28;20520;-83
2023/06/13 00:04:11;;;;;;;8.02;5.60;;;18.60;58.80;;;;;;6226133;28;20049;-85
2023/06/13 00:07:13;;;;;;;6.03;5.30;;;18.60;58.90;;;;;;6223490;28;20046;-83
2023/06/13 00:10:16;;;;;;;5.95;4.80;;;18.60;58.80;;;;;;6224051;28;20057;-85
2023/06/13 00:13:19;;;;;;;6.63;5.78;;;18.60;58.80;;;;;;6234944;28;20526;-82
2023/06/13 00:16:25;;;;;;;5.25;4.70;;;18.50;58.80;;;;;;6218661;28;20402;-83
2023/06/13 00:19:28;;;;;;;6.35;5.60;;;18.50;58.90;;;;;;6217613;28;20129;-83
2023/06/13 00:22:30;;;;;;;6.53;5.07;;;18.40;58.90;;;;;;6210807;28;20072;-82
2023/06/13 00:25:45;;;;;;;7.53;5.30;;;18.40;58.90;;;;;;6199224;28;20050;-86
2023/06/13 00:28:47;;;;;;;6.65;5.18;;;18.40;59.00;;;;;;6207278;28;20051;-81
2023/06/13 00:31:49;;;;;;;8.32;5.35;;;18.40;59.00;;;;;;6198663;28;20042;-81
2023/06/13 00:34:50;;;;;;;6.57;5.90;;;18.40;59.00;;;;;;6197179;28;20053;-82
2023/06/13 00:37:54;;;;;;;5.15;4.70;;;18.40;58.90;;;;;;6217187;28;20049;-81
2023/06/13 00:40:58;;;;;;;4.95;4.22;;;18.40;58.90;;;;;;6221456;28;20507;-83
2023/06/13 00:44:00;;;;;;;7.82;5.10;;;18.30;58.80;;;;;;6222184;28;20076;-82
2023/06/13 00:47:02;;;;;;;5.82;5.32;;;18.30;58.60;;;;;;6221515;28;20050;-81
2023/06/13 00:50:04;;;;;;;6.47;5.35;;;18.40;58.50;;;;;;6222137;28;20085;-81
2023/06/13 00:53:16;;;;;;;5.03;4.43;;;18.40;58.30;;;;;;6221747;28;20053;-84
2023/06/13 00:56:19;;;;;;;6.78;5.22;;;18.50;58.30;;;;;;6203157;28;20512;-83
2023/06/13 00:59:21;;;;;;;5.35;4.80;;;18.40;58.30;;;;;;6208326;28;20508;-83
2023/06/13 01:02:23;;;;;;;5.18;4.68;;;18.40;58.30;;;;;;6200944;28;20052;-80
2023/06/13 01:05:28;;;;;;;5.47;4.40;;;18.40;58.20;;;;;;6205966;28;20046;-85
2023/06/13 01:08:30;;;;;;;10.13;5.30;;;18.40;58.20;;;;;;6207925;28;20057;-84
2023/06/13 01:11:45;;;;;;;5.22;4.72;;;18.40;58.20;;;;;;6202438;28;20050;-81
2023/06/13 01:14:53;;;;;;;7.65;5.10;;;18.40;58.20;;;;;;6215223;28;20157;-81
2023/06/13 01:17:58;;;;;;;5.25;4.75;;;18.40;58.20;;;;;;6212382;28;20436;-83
2023/06/13 01:21:02;;;;;;;8.35;4.72;;;18.40;58.10;;;;;;6208976;28;20068;-86
2023/06/13 01:24:12;;;;;;;5.72;4.55;;;18.40;58.00;;;;;;6211097;28;20046;-81
2023/06/13 01:27:17;;;;;;;5.70;4.43;;;18.50;57.90;;;;;;6209824;28;20428;-82
2023/06/13 01:30:20;;;;;;;6.85;4.28;;;18.50;57.80;;;;;;6209231;28;20049;-82
2023/06/13 01:33:23;;;;;;;4.80;4.22;;;18.50;57.70;;;;;;6207735;28;20049;-81
2023/06/13 01:36:25;;;;;;;5.22;4.70;;;18.60;57.60;;;;;;6205959;28;20045;-83
2023/06/13 01:39:27;;;;;;;5.75;4.50;;;18.50;57.50;;;;;;6203641;28;20433;-81
2023/06/13 01:42:30;;;;;;;5.13;4.63;;;18.50;57.70;;;;;;6205336;28;20050;-82
2023/06/13 01:45:34;;;;;;;7.82;5.00;;;18.40;57.70;;;;;;6207369;28;20056;-81
2023/06/13 01:48:49;;;;;;;7.25;4.00;;;18.40;57.80;;;;;;6208539;28;20184;-86
2023/06/13 01:51:59;;;;;;;7.18;4.40;;;18.30;57.90;;;;;;6203265;28;20530;-83
2023/06/13 01:55:05;;;;;;;5.88;5.32;;;18.30;58.00;;;;;;6207709;28;20038;-83
2023/06/13 01:58:13;;;;;;;5.53;4.25;;;18.20;58.20;;;;;;6212063;28;20060;-82
2023/06/13 02:01:15;;;;;;;4.72;4.13;;;18.10;58.40;;;;;;6208866;28;20043;-82
2023/06/13 02:04:17;;;;;;;6.88;4.50;;;18.10;58.60;;;;;;6215140;28;20504;-83
2023/06/13 02:07:19;;;;;;;5.00;4.47;;;18.00;58.70;;;;;;6204480;28;20038;-82
2023/06/13 02:10:21;;;;;;;5.20;4.70;;;18.00;58.90;;;;;;6213803;28;20088;-83
2023/06/13 02:13:24;;;;;;;10.20;4.13;;;17.90;59.80;;;;;;6212423;28;20038;-84
2023/06/13 02:16:30;;;;;;;6.63;4.75;;;17.90;59.30;;;;;;6214821;28;20045;-83
2023/06/13 02:19:32;;;;;;;5.75;4.82;;;17.80;59.40;;;;;;6207522;28;20173;-84
2023/06/13 02:22:34;;;;;;;4.82;3.90;;;17.70;59.50;;;;;;6207320;28;20057;-83
2023/06/13 02:25:36;;;;;;;7.40;4.95;;;17.70;59.70;;;;;;6212543;28;20067;-87
2023/06/13 02:28:39;;;;;;;9.77;4.32;;;17.60;59.90;;;;;;6208653;28;20078;-83
2023/06/13 02:31:42;;;;;;;8.05;4.85;;;17.60;60.10;;;;;;6209217;28;20500;-85
2023/06/13 02:34:43;;;;;;;4.78;4.28;;;17.50;60.30;;;;;;6217725;28;20046;-82
2023/06/13 02:37:45;;;;;;;5.35;4.85;;;17.40;60.40;;;;;;6224296;28;20049;-84
2023/06/13 02:40:47;;;;;;;8.80;4.63;;;17.40;60.70;;;;;;6226210;28;20060;-84
2023/06/13 02:43:50;;;;;;;4.47;3.78;;;17.30;60.90;;;;;;6225525;28;20531;-81
2023/06/13 02:46:52;;;;;;;5.47;4.68;;;17.20;61.20;;;;;;6226110;28;20065;-82
2023/06/13 02:49:53;;;;;;;6.05;4.78;;;17.10;61.40;;;;;;6225714;28;20049;-83
2023/06/13 02:52:55;;;;;;;6.78;4.15;;;17.00;61.60;;;;;;6230472;28;20049;-85
2023/06/13 02:55:57;;;;;;;6.80;4.97;;;17.00;62.00;;;;;;6230215;28;20049;-83
2023/06/13 02:59:00;;;;;;;5.82;4.63;;;16.90;62.20;;;;;;6229657;28;20049;-85
2023/06/13 03:02:01;;;;;;;6.00;4.38;;;16.90;62.40;;;;;;6230412;28;20341;-84
2023/06/13 03:05:05;;;;;;;8.45;5.07;;;16.80;62.50;;;;;;6229500;28;20053;-81
2023/06/13 03:08:07;;;;;;;5.35;4.85;;;16.80;62.70;;;;;;6231236;28;20046;-85
2023/06/13 03:11:08;;;;;;;5.47;4.22;;;16.80;62.80;;;;;;6230145;28;20116;-84
2023/06/13 03:14:12;;;;;;;6.10;4.47;;;16.80;63.00;;;;;;6230863;28;20058;-83
2023/06/13 03:17:16;;;;;;;10.20;5.15;;;16.70;63.00;;;;;;6229413;28;20460;-82
2023/06/13 03:20:20;;;;;;;6.05;4.20;;;16.70;63.10;;;;;;6229394;28;20060;-84
2023/06/13 03:23:22;;;;;;;7.53;5.20;;;16.70;63.30;;;;;;6228781;28;20527;-83
2023/06/13 03:26:24;;;;;;;6.72;5.63;;;16.70;63.30;;;;;;6228866;28;20527;-83
2023/06/13 03:29:27;;;;;;;6.70;3.95;;;16.70;63.40;;;;;;6228456;28;20532;-83
2023/06/13 03:32:29;;;;;;;5.43;4.30;;;16.70;63.50;;;;;;6234055;28;20057;-84
2023/06/13 03:35:31;;;;;;;7.00;4.13;;;16.70;63.50;;;;;;6233919;28;20052;-85
2023/06/13 03:38:32;;;;;;;6.70;4.53;;;16.70;63.60;;;;;;6234895;28;20049;-84
2023/06/13 03:41:34;;;;;;;4.85;4.45;;;16.70;63.70;;;;;;6234068;28;20057;-85
2023/06/13 03:44:37;;;;;;;5.68;4.80;;;16.70;63.80;;;;;;6235411;28;20046;-83
2023/06/13 03:47:39;;;;;;;6.95;5.18;;;16.70;64.00;;;;;;6233301;28;20061;-84
2023/06/13 03:50:41;;;;;;;5.93;4.95;;;16.60;64.10;;;;;;6232762;28;20045;-84
2023/06/13 03:53:42;;;;;;;8.35;5.03;;;16.60;64.10;;;;;;6231916;28;20041;-83
2023/06/13 03:56:44;;;;;;;6.35;4.43;;;16.80;64.10;;;;;;6231911;28;20052;-84
2023/06/13 03:59:47;;;;;;;7.15;4.22;;;16.80;64.00;;;;;;6231737;28;20054;-82
2023/06/13 04:02:49;;;;;;;4.45;3.97;;;16.80;64.10;;;;;;6230957;28;20053;-82
2023/06/13 04:05:51;;;;;;;6.05;4.63;;;16.80;64.20;;;;;;6232006;28;20049;-82
2023/06/13 04:08:53;;;;;;;5.28;4.32;;;16.80;64.30;;;;;;6229316;28;20053;-83
2023/06/13 04:11:54;;;;;;;5.53;4.97;;;16.90;64.60;;;;;;6232140;28;20050;-83
2023/06/13 04:14:58;;;;;;;6.82;5.03;;;16.90;65.00;;;;;;6231140;28;20050;-84
2023/06/13 04:18:01;;;;;;;5.43;4.68;;;17.20;65.30;;;;;;6231469;28;20049;-84
2023/06/13 04:21:02;;;;;;;4.78;4.25;;;17.90;64.50;;;;;;6234413;28;20473;-84
2023/06/13 04:24:04;;;;;;;5.18;4.10;;;18.60;63.10;;;;;;6231052;28;20049;-82
2023/06/13 04:27:08;;;;;;;4.95;4.45;;;19.20;61.30;;;;;;6229506;28;20054;-84
2023/06/13 04:30:12;;;;;;;6.10;3.75;;;19.50;59.80;;;;;;6229841;28;20101;-83
2023/06/13 04:33:16;;;;;;;6.72;4.45;;;19.60;60.00;;;;;;6230836;28;20046;-82
2023/06/13 04:36:19;;;;;;;4.30;3.88;;;19.90;59.80;;;;;;6231737;28;20069;-84
2023/06/13 04:39:24;;;;;;;4.70;4.20;;;20.60;59.00;;;;;;6231931;28;20053;-84
2023/06/13 04:42:27;;;;;;;7.07;5.03;;;21.20;57.50;;;;;;6233975;28;20523;-84
2023/06/13 04:45:30;;;;;;;7.13;4.07;;;21.70;56.20;;;;;;6235487;28;20053;-85
2023/06/13 04:48:32;;;;;;;6.07;4.03;;;22.20;55.10;;;;;;6235292;28;20049;-83
2023/06/13 04:51:34;;;;;;;6.43;4.20;;;22.60;54.40;;;;;;6233280;28;20046;-84
2023/06/13 04:54:36;;;;;;;4.07;3.42;;;23.00;53.40;;;;;;6230020;28;20133;-83
2023/06/13 04:57:38;;;;;;;5.53;3.78;;;23.30;52.20;;;;;;6230041;28;20501;-82
2023/06/13 05:00:40;;;;;;;4.80;4.32;;;23.50;52.00;;;;;;6229607;28;20049;-83
2023/06/13 05:03:42;;;;;;;5.47;4.22;;;23.80;50.90;;;;;;6230114;28;20053;-83
2023/06/13 05:06:44;;;;;;;5.07;4.32;;;24.20;50.40;;;;;;6232088;28;20046;-83
2023/06/13 05:09:50;;;;;;;4.68;3.67;;;24.50;49.80;;;;;;6232061;28;20049;-84
2023/06/13 05:12:52;;;;;;;8.27;4.53;;;24.90;49.00;;;;;;6235204;28;20061;-86
2023/06/13 05:15:55;;;;;;;5.80;4.35;;;25.20;48.40;;;;;;6234287;28;20057;-85
2023/06/13 05:19:00;;;;;;;7.70;4.50;;;25.50;47.70;;;;;;6232395;28;20053;-84
2023/06/13 05:22:03;;;;;;;5.70;4.13;;;25.60;47.50;;;;;;6230433;28;20109;-84
2023/06/13 05:25:08;;;;;;;4.28;3.97;;;26.00;47.60;;;;;;6231021;28;20073;-83
2023/06/13 05:28:10;;;;;;;6.75;3.42;;;26.80;46.90;;;;;;6232715;28;20054;-86
2023/06/13 05:31:13;;;;;;;3.92;3.42;;;27.60;45.70;;;;;;6238391;28;20050;-85
2023/06/13 05:34:15;;;;;;;3.88;3.40;;;28.00;44.70;;;;;;6241168;28;20370;-83
2023/06/13 05:37:17;;;;;;;3.42;3.13;;;28.30;44.20;;;;;;6235412;28;20057;-84
2023/06/13 05:40:19;;;;;;;6.05;3.70;;;28.60;43.70;;;;;;6237730;28;20057;-84
2023/06/13 05:43:21;;;;;;;3.92;3.50;;;29.20;43.20;;;;;;6234055;28;20070;-82
2023/06/13 05:46:24;;;;;;;13.13;4.68;;;29.90;42.30;;;;;;6233785;28;20049;-82
2023/06/13 05:49:27;;;;;;;7.97;3.65;;;30.40;41.20;;;;;;6234818;28;20042;-81
2023/06/13 05:52:30;;;;;;;4.43;4.03;;;30.60;41.20;;;;;;6234519;28;20061;-82
2023/06/13 05:55:31;;;;;;;6.90;3.75;;;30.90;40.30;;;;;;6233343;28;20449;-83
2023/06/13 05:58:33;;;;;;;10.20;4.43;;;30.90;40.30;;;;;;6232456;28;20046;-85
2023/06/13 06:01:37;;;;;;;6.82;3.72;;;30.90;39.70;;;;;;6209928;28;20050;-82
2023/06/13 06:04:39;;;;;;;4.30;3.90;;;30.70;39.30;;;;;;6208550;28;20081;-82
2023/06/13 06:07:42;;;;;;;6.57;3.70;;;30.60;39.50;;;;;;6207723;28;20042;-84
2023/06/13 06:10:43;;;;;;;12.98;4.35;;;30.60;39.40;;;;;;6207909;28;20109;-81
2023/06/13 06:13:45;;;;;;;4.35;3.65;;;30.60;39.80;;;;;;6208301;28;20425;-81
2023/06/13 06:16:49;;;;;;;6.32;3.75;;;30.40;39.00;;;;;;6209585;28;20508;-81
2023/06/13 06:19:51;;;;;;;5.50;3.42;;;30.40;38.70;;;;;;6207840;28;20050;-83
2023/06/13 06:22:53;;;;;;;6.90;3.08;;;30.10;39.10;;;;;;6206933;28;20053;-82
2023/06/13 06:25:55;;;;;;;6.60;3.75;;;29.80;39.00;;;;;;6207253;28;20047;-83
2023/06/13 06:28:57;;;;;;;6.75;3.53;;;29.70;39.40;;;;;;6206674;28;20051;-84
2023/06/13 06:32:00;;;;;;;3.40;3.03;;;29.80;39.20;;;;;;6207067;28;20090;-82
2023/06/13 06:35:03;;;;;;;5.78;3.00;;;29.80;38.80;;;;;;6213665;28;20050;-82
2023/06/13 06:38:05;;;;;;;4.20;3.20;;;29.50;39.00;;;;;;6228496;28;20053;-83
2023/06/13 06:41:07;;;;;;;4.85;2.95;;;29.60;38.90;;;;;;6227613;28;20072;-83
2023/06/13 06:44:09;;;;;;;3.58;3.00;;;29.60;38.20;;;;;;6228724;28;20058;-83
2023/06/13 06:47:12;;;;;;;5.18;3.50;;;29.50;38.50;;;;;;6227547;28;20045;-83
2023/06/13 06:50:13;;;;;;;4.57;3.28;;;29.80;37.70;;;;;;6227978;28;20050;-85
2023/06/13 06:53:15;;;;;;;5.28;3.55;;;29.70;37.60;;;;;;6227983;28;20500;-83
2023/06/13 06:56:17;;;;;;;9.55;3.53;;;30.00;37.60;;;;;;6228991;28;20041;-84
2023/06/13 06:59:18;;;;;;;8.63;3.08;;;30.30;37.20;;;;;;6230779;28;20046;-84
2023/06/13 07:02:22;;;;;;;6.85;3.25;;;30.20;36.40;;;;;;6228133;28;20509;-84
2023/06/13 07:05:23;;;;;;;4.82;2.78;;;30.00;36.20;;;;;;6230708;28;20045;-83
2023/06/13 07:08:25;;;;;;;2.85;2.60;;;29.60;36.00;;;;;;6230666;28;20042;-83
2023/06/13 07:11:27;;;;;;;3.30;3.00;;;29.50;36.10;;;;;;6230268;28;20045;-82
2023/06/13 07:14:29;;;;;;;3.78;3.03;;;29.40;35.80;;;;;;6229883;28;20057;-83
2023/06/13 07:17:32;;;;;;;5.68;3.78;;;29.30;36.00;;;;;;6231156;28;20057;-83
2023/06/13 07:20:33;;;;;;;3.75;2.92;;;29.30;35.80;;;;;;6231742;28;20567;-82
2023/06/13 07:23:35;;;;;;;6.53;2.78;;;29.20;35.90;;;;;;6229727;28;20471;-84
2023/06/13 07:26:37;;;;;;;3.47;3.10;;;29.50;36.00;;;;;;6230952;28;20049;-82
2023/06/13 07:29:40;;;;;;;5.75;3.08;;;29.80;35.90;;;;;;6229960;28;20046;-83
2023/06/13 07:32:43;;;;;;;8.15;3.17;;;30.00;35.40;;;;;;6232379;28;20053;-84
2023/06/13 07:35:45;;;;;;;3.20;2.70;;;30.10;34.60;;;;;;6230972;28;20052;-82
2023/06/13 07:38:46;;;;;;;6.85;2.97;;;29.60;34.90;;;;;;6229727;28;20042;-82
2023/06/13 07:41:49;;;;;;;4.57;2.53;;;29.50;34.80;;;;;;6228033;28;20061;-84
2023/06/13 07:44:51;;;;;;;4.30;2.20;;;29.60;35.10;;;;;;6233406;28;20085;-84
2023/06/13 07:47:54;;;;;;;4.82;2.85;;;29.60;34.10;;;;;;6246603;28;20046;-83
2023/06/13 07:50:56;;;;;;;5.22;2.70;;;29.30;34.10;;;;;;6257288;28;20392;-83
2023/06/13 07:53:57;;;;;;;2.92;2.50;;;29.20;34.50;;;;;;6251966;28;20113;-80
2023/06/13 07:56:59;;;;;;;3.08;2.50;;;29.00;34.40;;;;;;6248894;28;20049;-80
2023/06/13 08:00:01;;;;;;;3.38;2.70;;;28.40;34.60;;;;;;6251588;28;20060;-79
2023/06/13 08:03:04;;;;;;;3.83;2.90;;;27.40;35.70;;;;;;6250619;28;20191;-79
2023/06/13 08:06:06;;;;;;;3.28;2.97;;;26.50;36.40;;;;;;6247580;28;20401;-78
2023/06/13 08:09:09;;;;;;;6.82;2.95;;;25.70;37.50;;;;;;6246851;28;20056;-80
2023/06/13 08:12:11;;;;;;;6.35;3.63;;;25.70;38.10;;;;;;6256742;28;20049;-81
2023/06/13 08:15:12;;;;;;;3.70;2.67;;;26.50;37.70;;;;;;6260615;28;20059;-80
2023/06/13 08:18:15;;;;;;;5.00;3.85;;;27.30;36.70;;;;;;6263571;28;20042;-81
2023/06/13 08:21:17;;;;;;;7.13;2.67;;;27.60;36.50;;;;;;6261628;28;20057;-83
2023/06/13 08:24:19;;;;;;;3.03;2.70;;;27.70;36.30;;;;;;6254385;28;20056;-85
2023/06/13 08:27:21;;;;;;;6.70;2.53;;;27.80;35.80;;;;;;6251982;28;20056;-84
2023/06/13 08:30:22;;;;;;;12.82;3.35;;;27.90;35.50;;;;;;6252269;28;20052;-84
2023/06/13 08:33:26;;;;;;;4.93;2.40;;;28.10;35.30;;;;;;6256158;28;20041;-83
2023/06/13 08:36:28;;;;;;;7.43;3.35;;;28.50;34.90;;;;;;6258627;28;20053;-83
2023/06/13 08:39:30;;;;;;;3.15;2.53;;;28.60;34.70;;;;;;6248211;28;20046;-83
2023/06/13 08:42:32;;;;;;;4.22;3.30;;;28.40;34.50;;;;;;6251143;28;20045;-83
2023/06/13 08:45:34;;;;;;;5.78;3.33;;;28.20;34.80;;;;;;6254586;28;20083;-85
2023/06/13 08:48:37;;;;;;;8.07;2.58;;;28.40;35.10;;;;;;6252220;28;20041;-79
2023/06/13 08:51:41;;;;;;;4.43;2.83;;;28.70;34.40;;;;;;6257123;28;20046;-82
2023/06/13 08:54:44;;;;;;;2.60;2.40;;;28.80;34.70;;;;;;6259041;28;20052;-83
2023/06/13 08:57:49;;;;;;;5.80;2.28;;;28.60;34.20;;;;;;6259379;28;20416;-82
2023/06/13 09:00:51;;;;;;;3.22;2.35;;;28.50;34.50;;;;;;6261329;28;20164;-82
2023/06/13 09:03:56;;;;;;;3.47;2.95;;;28.60;34.10;;;;;;6260405;28;20518;-81
2023/06/13 09:06:58;;;;;;;4.45;3.00;;;28.90;34.40;;;;;;6253387;28;20050;-79
2023/06/13 09:10:01;;;;;;;3.92;3.35;;;28.80;34.10;;;;;;6255781;28;20054;-81
2023/06/13 09:13:04;;;;;;;6.00;2.90;;;28.60;34.40;;;;;;6258606;28;20052;-80
2023/06/13 09:16:06;;;;;;;3.85;3.42;;;28.80;34.20;;;;;;6256474;28;20069;-79
2023/06/13 09:19:09;;;;;;;5.65;3.33;;;28.70;34.30;;;;;;6257537;28;20060;-84
2023/06/13 09:22:11;;;;;;;3.72;3.20;;;29.00;34.20;;;;;;6219347;28;1041204;-80
2023/06/13 09:25:16;;;;;;;4.97;2.45;;;29.00;33.90;;;;;;6255087;28;20205;-82
2023/06/13 09:28:31;;;;;;;2.92;2.65;;;28.90;34.30;;;;;;6256920;28;20052;-81
2023/06/13 09:31:36;;;;;;;5.80;2.90;;;29.00;34.50;;;;;;6254028;28;20527;-81
2023/06/13 09:34:41;;;;;;;4.88;2.83;;;29.20;34.30;;;;;;6255797;28;20053;-84
2023/06/13 09:37:42;;;;;;;4.72;3.25;;;29.00;33.70;;;;;;6254167;28;20095;-82
2023/06/13 09:40:47;;;;;;;9.55;3.63;;;28.60;33.60;;;;;;6255296;28;20137;-82
2023/06/13 09:43:51;;;;;;;7.18;3.03;;;28.50;34.30;;;;;;6248612;28;20057;-81
2023/06/13 09:46:55;;;;;;;3.45;2.53;;;28.80;35.00;;;;;;6252155;28;20041;-80
2023/06/13 09:50:00;;;;;;;9.35;3.17;;;28.80;33.60;;;;;;6250245;28;20060;-82
2023/06/13 09:53:02;;;;;;;5.80;3.20;;;28.60;34.20;;;;;;6257297;28;20049;-81
2023/06/13 09:56:05;;;;;;;4.82;2.67;;;28.50;34.50;;;;;;6255863;28;20049;-82
2023/06/13 09:59:06;;;;;;;6.05;3.90;;;28.30;34.10;;;;;;6255119;28;20056;-80
2023/06/13 10:02:08;;;;;;;5.65;3.03;;;28.10;34.10;;;;;;6261277;28;20057;-80
2023/06/13 10:05:13;;;;;;;3.50;3.20;;;28.30;34.10;;;;;;6260840;28;20057;-80
2023/06/13 10:08:15;;;;;;;5.57;2.92;;;28.60;34.10;;;;;;6254557;28;20487;-79
2023/06/13 10:11:21;;;;;;;11.15;4.35;;;28.80;34.20;;;;;;6255521;28;20046;-81
2023/06/13 10:14:24;;;;;;;5.85;2.83;;;29.20;34.70;;;;;;6253254;28;20061;-81
2023/06/13 10:17:31;;;;;;;3.50;2.67;;;29.30;34.80;;;;;;6246330;28;20515;-80
2023/06/13 10:20:35;;;;;;;5.47;3.38;;;28.70;34.90;;;;;;6246744;28;20053;-80
2023/06/13 10:23:44;;;;;;;3.33;3.03;;;28.50;35.00;;;;;;6251234;28;20044;-81
2023/06/13 10:26:46;;;;;;;8.40;3.22;;;28.60;34.90;;;;;;6254253;28;20037;-82
2023/06/13 10:30:13;;;;;;;3.53;3.08;;;28.60;35.10;;;;;;6256786;28;20530;-79
2023/06/13 10:33:41;;;;;;;9.18;2.90;;;28.50;35.50;;;;;;6244465;28;20500;-78
2023/06/13 10:37:05;;;;;;;8.18;2.95;;;28.50;35.80;;;;;;6249589;28;20045;-78
2023/06/13 10:40:29;;;;;;;7.45;3.72;;;28.90;35.50;;;;;;6250828;28;20044;-79
2023/06/13 10:43:37;;;;;;;5.68;3.67;;;28.90;35.20;;;;;;6249146;28;20103;-80
2023/06/13 10:46:39;;;;;;;8.00;3.30;;;28.70;35.40;;;;;;6248101;28;20416;-79
2023/06/13 10:49:42;;;;;;;5.60;3.20;;;28.60;35.70;;;;;;6246154;28;20053;-79
2023/06/13 10:52:48;;;;;;;5.28;3.40;;;29.10;35.40;;;;;;6249690;28;20057;-80
2023/06/13 10:55:50;;;;;;;7.03;3.45;;;29.10;35.00;;;;;;6248644;28;20496;-80
2023/06/13 10:59:01;;;;;;;4.93;3.45;;;29.30;35.00;;;;;;6247967;28;20049;-79
2023/06/13 11:02:03;;;;;;;5.70;3.33;;;29.20;34.60;;;;;;6249952;28;20044;-80
2023/06/13 11:05:05;;;;;;;3.92;3.10;;;29.20;35.10;;;;;;6251375;28;20053;-81
2023/06/13 11:08:13;;;;;;;7.03;3.10;;;29.60;34.80;;;;;;6251391;28;20044;-81
2023/06/13 11:11:20;;;;;;;8.75;4.78;;;29.80;34.60;;;;;;6250304;28;20044;-80
2023/06/13 11:14:24;;;;;;;3.83;2.90;;;30.10;34.00;;;;;;6250718;28;20041;-79
2023/06/13 11:17:27;;;;;;;13.55;3.05;;;29.90;33.80;;;;;;6248784;28;20048;-79
2023/06/13 11:20:28;;;;;;;4.72;3.30;;;30.10;33.90;;;;;;6254130;28;20049;-83
2023/06/13 11:23:45;;;;;;;5.45;3.45;;;30.40;33.20;;;;;;6252700;28;20145;-82
2023/06/13 11:26:47;;;;;;;5.10;3.35;;;30.10;33.60;;;;;;6252610;28;20477;-81
2023/06/13 11:29:51;;;;;;;10.43;3.20;;;29.90;33.10;;;;;;6252639;28;20044;-81
2023/06/13 11:32:53;;;;;;;4.38;3.45;;;29.70;33.50;;;;;;6251223;28;20045;-79
2023/06/13 11:35:58;;;;;;;9.70;3.35;;;29.80;33.20;;;;;;6249132;28;20080;-80
2023/06/13 11:39:05;;;;;;;4.40;3.55;;;29.80;33.40;;;;;;6249414;28;20226;-80
2023/06/13 11:42:08;;;;;;;9.00;3.60;;;29.70;33.20;;;;;;6248286;28;20048;-79
2023/06/13 11:45:10;;;;;;;14.15;3.55;;;29.90;33.10;;;;;;6250185;28;20061;-80
2023/06/13 11:48:18;;;;;;;5.93;3.55;;;29.90;32.90;;;;;;6253451;28;20052;-78
2023/06/13 11:51:19;;;;;;;6.68;2.72;;;29.90;32.80;;;;;;6254001;28;20408;-79
2023/06/13 11:54:30;;;;;;;6.82;2.92;;;30.00;33.10;;;;;;6243464;28;20171;-79
2023/06/13 11:57:45;;;;;;;5.38;3.47;;;30.20;33.30;;;;;;6246216;28;20045;-79
2023/06/13 12:00:53;;;;;;;4.70;2.90;;;30.30;32.80;;;;;;6245223;28;20441;-78
2023/06/13 12:03:57;;;;;;;8.10;3.50;;;30.00;32.30;;;;;;6244937;28;20124;-79
2023/06/13 12:07:03;;;;;;;5.32;3.53;;;29.90;32.20;;;;;;6245004;28;20153;-79
2023/06/13 12:10:07;;;;;;;5.30;3.70;;;29.70;32.10;;;;;;6245976;28;20049;-78
2023/06/13 12:13:11;;;;;;;6.40;4.22;;;29.90;31.70;;;;;;6249332;28;20067;-79
2023/06/13 12:16:12;;;;;;;4.30;3.58;;;29.90;32.20;;;;;;6247086;28;20492;-80
2023/06/13 12:19:19;;;;;;;5.07;3.88;;;30.30;32.20;;;;;;6248406;28;20511;-81
2023/06/13 12:22:21;;;;;;;4.75;3.97;;;30.70;31.80;;;;;;6246074;28;20518;-79
2023/06/13 12:25:26;;;;;;;4.38;3.80;;;30.60;31.70;;;;;;6251883;28;20065;-79
2023/06/13 12:28:29;;;;;;;6.43;3.85;;;30.50;31.70;;;;;;6248692;28;20049;-77
2023/06/13 12:31:35;;;;;;;5.57;3.28;;;30.40;31.70;;;;;;6249005;28;20515;-80
2023/06/13 12:34:41;;;;;;;5.32;3.20;;;30.30;31.90;;;;;;6252427;28;20056;-78
2023/06/13 12:37:43;;;;;;;10.32;3.08;;;30.40;32.00;;;;;;6249533;28;20049;-79
2023/06/13 12:40:51;;;;;;;4.68;4.00;;;30.10;31.90;;;;;;6252186;28;20048;-79
2023/06/13 12:43:53;;;;;;;7.20;3.85;;;30.00;32.40;;;;;;6252448;28;20061;-79
2023/06/13 12:46:56;;;;;;;5.38;3.70;;;30.30;32.70;;;;;;6246738;28;20045;-79
2023/06/13 12:50:07;;;;;;;6.50;3.45;;;30.50;32.30;;;;;;6243487;28;20105;-79
2023/06/13 12:53:09;;;;;;;5.03;3.40;;;30.80;32.60;;;;;;6245600;28;20088;-80
2023/06/13 12:56:15;;;;;;;4.03;3.25;;;31.20;31.70;;;;;;6243842;28;20568;-79
2023/06/13 12:59:17;;;;;;;3.60;3.30;;;30.90;31.00;;;;;;6244568;28;20041;-80
2023/06/13 13:02:20;;;;;;;5.82;3.38;;;30.50;31.10;;;;;;6245750;28;20041;-80
2023/06/13 13:05:27;;;;;;;4.07;3.50;;;30.50;31.10;;;;;;6247823;28;20053;-80
2023/06/13 13:08:29;;;;;;;7.75;2.90;;;30.60;31.00;;;;;;6251561;28;20140;-79
2023/06/13 13:11:33;;;;;;;6.43;3.70;;;30.50;31.40;;;;;;6255644;28;20052;-80
2023/06/13 13:14:35;;;;;;;11.48;3.80;;;30.60;31.50;;;;;;6253529;28;20088;-79
2023/06/13 13:17:36;;;;;;;4.55;3.65;;;30.70;31.60;;;;;;6255122;28;20519;-81
2023/06/13 13:20:38;;;;;;;7.53;2.97;;;30.90;31.70;;;;;;6252365;28;20045;-78
2023/06/13 13:23:40;;;;;;;10.10;4.72;;;30.90;31.50;;;;;;6249317;28;20052;-80
2023/06/13 13:26:46;;;;;;;6.65;3.97;;;30.80;30.90;;;;;;6253221;28;20053;-80
2023/06/13 13:29:47;;;;;;;4.15;3.65;;;30.50;31.20;;;;;;6252350;28;20143;-78
2023/06/13 13:32:50;;;;;;;5.85;3.40;;;30.70;31.40;;;;;;6250118;28;20109;-79
2023/06/13 13:35:52;;;;;;;3.00;2.80;;;31.00;30.90;;;;;;6256076;28;20070;-80
2023/06/13 13:38:54;;;;;;;9.98;3.70;;;31.00;31.00;;;;;;6250727;28;20045;-79
2023/06/13 13:41:57;;;;;;;6.00;3.72;;;31.20;31.00;;;;;;6257762;28;20127;-78
2023/06/13 13:44:59;;;;;;;6.35;3.85;;;31.40;30.70;;;;;;6257192;28;20064;-78
2023/06/13 13:48:00;;;;;;;3.53;3.22;;;31.40;30.40;;;;;;6257739;28;20049;-78
2023/06/13 13:51:02;;;;;;;8.07;3.92;;;31.00;30.60;;;;;;6253505;28;20045;-78
2023/06/13 13:54:05;;;;;;;7.10;3.20;;;30.90;30.50;;;;;;6258212;28;20042;-78
2023/06/13 13:57:09;;;;;;;5.57;3.05;;;30.60;30.90;;;;;;6257769;28;20060;-78
2023/06/13 14:00:12;;;;;;;4.32;3.45;;;30.90;31.30;;;;;;6260803;28;20472;-79
2023/06/13 14:03:14;;;;;;;6.60;3.20;;;31.40;31.30;;;;;;6259656;28;20143;-79
2023/06/13 14:06:17;;;;;;;6.47;3.85;;;31.50;31.00;;;;;;6256313;28;20045;-78
2023/06/13 14:09:18;;;;;;;16.30;5.60;;;31.40;30.80;;;;;;6243834;28;20060;-78
2023/06/13 14:12:21;;;;;;;5.65;3.72;;;31.20;30.80;;;;;;6247841;28;20067;-80
2023/06/13 14:15:23;;;;;;;5.72;3.75;;;31.10;31.10;;;;;;6251588;28;20053;-80
2023/06/13 14:18:25;;;;;;;4.65;3.95;;;31.10;31.30;;;;;;6253133;28;20041;-78
2023/06/13 14:21:27;;;;;;;7.60;4.22;;;31.30;31.30;;;;;;6252432;28;20120;-79
2023/06/13 14:24:29;;;;;;;5.47;3.50;;;31.30;30.70;;;;;;6253673;28;20484;-78
2023/06/13 14:27:32;;;;;;;4.15;3.53;;;31.00;30.90;;;;;;6249374;28;20049;-77
2023/06/13 14:30:34;;;;;;;6.35;3.55;;;31.10;30.90;;;;;;6252708;28;20052;-80
2023/06/13 14:33:38;;;;;;;5.05;3.88;;;30.90;30.80;;;;;;6251249;28;20360;-79
2023/06/13 14:36:39;;;;;;;4.43;3.60;;;31.00;31.10;;;;;;6254423;28;20055;-80
2023/06/13 14:39:41;;;;;;;4.03;3.28;;;31.40;31.10;;;;;;6253549;28;20046;-79
2023/06/13 14:42:45;;;;;;;4.22;3.50;;;31.40;30.80;;;;;;6249279;28;20056;-81
2023/06/13 14:45:47;;;;;;;5.18;3.10;;;31.30;30.70;;;;;;6249264;28;20049;-79
2023/06/13 14:48:49;;;;;;;5.95;3.45;;;31.10;30.90;;;;;;6246831;28;20056;-78
2023/06/13 14:51:51;;;;;;;4.30;3.83;;;31.10;31.70;;;;;;6256335;28;20053;-79
2023/06/13 14:54:52;;;;;;;7.35;5.30;;;31.00;31.00;;;;;;6252529;28;20064;-79
2023/06/13 14:57:57;;;;;;;5.90;3.65;;;30.80;31.10;;;;;;6256052;28;20541;-80
2023/06/13 15:00:58;;;;;;;5.68;3.80;;;30.80;31.50;;;;;;6251489;28;20053;-76
2023/06/13 15:04:00;;;;;;;4.38;3.83;;;30.60;31.40;;;;;;6254628;28;20064;-79
2023/06/13 15:07:02;;;;;;;7.55;3.92;;;30.60;31.70;;;;;;6252957;28;22824;-79
2023/06/13 15:10:04;;;;;;;5.30;3.95;;;30.40;31.80;;;;;;6255169;28;20045;-78
2023/06/13 15:13:07;;;;;;;6.40;3.65;;;30.30;31.70;;;;;;6255019;28;20128;-80
2023/06/13 15:16:10;;;;;;;8.38;4.63;;;30.40;31.90;;;;;;6244897;28;20061;-79
2023/06/13 15:19:11;;;;;;;9.77;4.03;;;30.70;31.90;;;;;;6244873;28;20447;-79
2023/06/13 15:22:13;;;;;;;8.32;3.53;;;30.90;32.00;;;;;;6243747;28;20057;-77
2023/06/13 15:25:15;;;;;;;8.88;4.00;;;30.80;31.80;;;;;;6245497;28;20045;-79
2023/06/13 15:28:18;;;;;;;4.15;3.75;;;30.80;32.10;;;;;;6245409;28;20049;-79
2023/06/13 15:31:20;;;;;;;6.30;4.22;;;30.90;32.10;;;;;;6244993;28;20416;-78
2023/06/13 15:34:24;;;;;;;5.32;3.78;;;30.90;32.00;;;;;;6243377;28;20060;-79
2023/06/13 15:37:26;;;;;;;4.07;3.67;;;30.90;31.70;;;;;;6244771;28;20041;-80
2023/06/13 15:40:28;;;;;;;6.15;3.13;;;30.80;31.30;;;;;;6246024;28;20041;-79
2023/06/13 15:43:31;;;;;;;4.80;3.88;;;30.60;31.10;;;;;;6243596;28;20057;-79
2023/06/13 15:46:33;;;;;;;4.20;3.80;;;30.40;31.10;;;;;;6248662;28;20057;-79
2023/06/13 15:49:34;;;;;;;6.53;5.28;;;30.30;31.10;;;;;;6243987;28;20062;-80
2023/06/13 15:52:36;;;;;;;4.60;4.15;;;30.60;31.20;;;;;;6243678;28;20061;-80